sensor_id;sensor_type;location;lat;lon;timestamp;P1;durP1;ratioP1;P2;durP2;ratioP2
23782;SDS011;12071;50.850;4.446;2023-02-10T00:00:10;51.42;;;30.55;;
23782;SDS011;12071;50.850;4.446;2023-02-10T00:02:36;55.47;;;30.35;;
23782;SDS011;12071;50.850;4.446;2023-02-10T00:05:01;56.08;;;31.08;;
23782;SDS011;12071;50.850;4.446;2023-02-10T00:07:27;53.53;;;30.88;;
23782;SDS011;12071;50.850;4.446;2023-02-10T00:09:52;54.67;;;29.65;;
23782;SDS011;12071;50.850;4.446;2023-02-10T00:12:18;52.50;;;30.17;;
23782;SDS011;12071;50.850;4.446;2023-02-10T00:14:44;54.42;;;30.25;;
23782;SDS011;12071;50.850;4.446;2023-02-10T00:17:09;52.72;;;30.20;;
23782;SDS011;12071;50.850;4.446;2023-02-10T00:19:35;60.95;;;30.27;;
23782;SDS011;12071;50.850;4.446;2023-02-10T00:22:00;53.78;;;31.40;;
23782;SDS011;12071;50.850;4.446;2023-02-10T00:24:27;61.70;;;32.72;;
23782;SDS011;12071;50.850;4.446;2023-02-10T00:26:54;57.13;;;31.67;;
23782;SDS011;12071;50.850;4.446;2023-02-10T00:29:20;54.25;;;31.85;;
23782;SDS011;12071;50.850;4.446;2023-02-10T00:31:45;57.15;;;32.05;;
23782;SDS011;12071;50.850;4.446;2023-02-10T00:34:15;53.72;;;32.47;;
23782;SDS011;12071;50.850;4.446;2023-02-10T00:36:42;60.15;;;32.17;;
23782;SDS011;12071;50.850;4.446;2023-02-10T00:39:11;54.00;;;31.45;;
23782;SDS011;12071;50.850;4.446;2023-02-10T00:41:38;51.67;;;29.73;;
23782;SDS011;12071;50.850;4.446;2023-02-10T00:44:04;56.95;;;31.85;;
23782;SDS011;12071;50.850;4.446;2023-02-10T00:46:30;59.70;;;30.92;;
23782;SDS011;12071;50.850;4.446;2023-02-10T00:48:55;57.58;;;31.30;;
23782;SDS011;12071;50.850;4.446;2023-02-10T00:51:21;53.70;;;30.92;;
23782;SDS011;12071;50.850;4.446;2023-02-10T00:53:47;55.25;;;31.40;;
23782;SDS011;12071;50.850;4.446;2023-02-10T00:56:16;56.25;;;30.98;;
23782;SDS011;12071;50.850;4.446;2023-02-10T00:58:43;52.92;;;31.02;;
23782;SDS011;12071;50.850;4.446;2023-02-10T01:01:09;55.22;;;31.60;;
23782;SDS011;12071;50.850;4.446;2023-02-10T01:03:36;56.35;;;32.67;;
23782;SDS011;12071;50.850;4.446;2023-02-10T01:06:02;60.78;;;33.13;;
23782;SDS011;12071;50.850;4.446;2023-02-10T01:08:28;57.90;;;33.38;;
23782;SDS011;12071;50.850;4.446;2023-02-10T01:11:04;64.05;;;34.85;;
23782;SDS011;12071;50.850;4.446;2023-02-10T01:13:32;62.97;;;35.00;;
23782;SDS011;12071;50.850;4.446;2023-02-10T01:15:59;65.07;;;34.55;;
23782;SDS011;12071;50.850;4.446;2023-02-10T01:18:25;59.38;;;35.03;;
23782;SDS011;12071;50.850;4.446;2023-02-10T01:20:52;58.47;;;35.75;;
23782;SDS011;12071;50.850;4.446;2023-02-10T01:23:18;61.67;;;33.70;;
23782;SDS011;12071;50.850;4.446;2023-02-10T01:25:43;62.65;;;33.17;;
23782;SDS011;12071;50.850;4.446;2023-02-10T01:28:09;58.72;;;33.33;;
23782;SDS011;12071;50.850;4.446;2023-02-10T01:30:35;64.93;;;34.25;;
23782;SDS011;12071;50.850;4.446;2023-02-10T01:33:01;66.30;;;34.65;;
23782;SDS011;12071;50.850;4.446;2023-02-10T01:35:27;66.75;;;35.53;;
23782;SDS011;12071;50.850;4.446;2023-02-10T01:37:53;63.35;;;34.28;;
23782;SDS011;12071;50.850;4.446;2023-02-10T01:40:19;66.78;;;35.28;;
23782;SDS011;12071;50.850;4.446;2023-02-10T01:42:45;59.92;;;34.35;;
23782;SDS011;12071;50.850;4.446;2023-02-10T01:45:18;60.70;;;35.75;;
23782;SDS011;12071;50.850;4.446;2023-02-10T01:47:48;58.92;;;34.30;;
23782;SDS011;12071;50.850;4.446;2023-02-10T01:50:17;57.58;;;34.55;;
23782;SDS011;12071;50.850;4.446;2023-02-10T01:52:44;60.50;;;34.47;;
23782;SDS011;12071;50.850;4.446;2023-02-10T01:55:16;64.30;;;35.35;;
23782;SDS011;12071;50.850;4.446;2023-02-10T01:57:44;68.75;;;35.53;;
23782;SDS011;12071;50.850;4.446;2023-02-10T02:00:10;58.85;;;34.40;;
23782;SDS011;12071;50.850;4.446;2023-02-10T02:02:37;57.25;;;34.17;;
23782;SDS011;12071;50.850;4.446;2023-02-10T02:05:06;62.65;;;35.95;;
23782;SDS011;12071;50.850;4.446;2023-02-10T02:07:42;58.10;;;34.47;;
23782;SDS011;12071;50.850;4.446;2023-02-10T02:10:08;65.10;;;35.00;;
23782;SDS011;12071;50.850;4.446;2023-02-10T02:18:12;66.07;;;35.97;;
23782;SDS011;12071;50.850;4.446;2023-02-10T02:26:19;58.50;;;33.33;;
23782;SDS011;12071;50.850;4.446;2023-02-10T02:34:10;63.10;;;34.85;;
23782;SDS011;12071;50.850;4.446;2023-02-10T02:36:46;64.13;;;34.17;;
23782;SDS011;12071;50.850;4.446;2023-02-10T02:39:33;67.90;;;35.92;;
23782;SDS011;12071;50.850;4.446;2023-02-10T02:42:00;62.63;;;35.63;;
23782;SDS011;12071;50.850;4.446;2023-02-10T02:44:38;67.88;;;35.80;;
23782;SDS011;12071;50.850;4.446;2023-02-10T02:47:42;68.40;;;36.67;;
23782;SDS011;12071;50.850;4.446;2023-02-10T02:56:14;82.35;;;39.33;;
23782;SDS011;12071;50.850;4.446;2023-02-10T02:58:55;75.43;;;39.15;;
23782;SDS011;12071;50.850;4.446;2023-02-10T03:01:28;78.03;;;39.65;;
23782;SDS011;12071;50.850;4.446;2023-02-10T03:03:59;80.60;;;42.05;;
23782;SDS011;12071;50.850;4.446;2023-02-10T03:06:25;81.47;;;40.92;;
23782;SDS011;12071;50.850;4.446;2023-02-10T03:08:51;85.45;;;42.97;;
23782;SDS011;12071;50.850;4.446;2023-02-10T03:11:17;84.53;;;42.28;;
23782;SDS011;12071;50.850;4.446;2023-02-10T03:13:42;88.35;;;42.38;;
23782;SDS011;12071;50.850;4.446;2023-02-10T03:16:08;88.93;;;41.70;;
23782;SDS011;12071;50.850;4.446;2023-02-10T03:18:34;89.97;;;42.30;;
23782;SDS011;12071;50.850;4.446;2023-02-10T03:21:00;86.38;;;41.92;;
23782;SDS011;12071;50.850;4.446;2023-02-10T03:23:25;89.88;;;41.92;;
23782;SDS011;12071;50.850;4.446;2023-02-10T03:25:51;88.20;;;43.03;;
23782;SDS011;12071;50.850;4.446;2023-02-10T03:28:17;85.20;;;40.47;;
23782;SDS011;12071;50.850;4.446;2023-02-10T03:30:42;90.68;;;42.58;;
23782;SDS011;12071;50.850;4.446;2023-02-10T03:33:17;84.38;;;40.00;;
23782;SDS011;12071;50.850;4.446;2023-02-10T03:35:44;91.00;;;41.72;;
23782;SDS011;12071;50.850;4.446;2023-02-10T03:38:10;85.95;;;41.17;;
23782;SDS011;12071;50.850;4.446;2023-02-10T03:40:36;98.10;;;43.65;;
23782;SDS011;12071;50.850;4.446;2023-02-10T03:43:02;88.78;;;42.28;;
23782;SDS011;12071;50.850;4.446;2023-02-10T03:45:27;90.10;;;41.05;;
23782;SDS011;12071;50.850;4.446;2023-02-10T03:47:53;87.70;;;40.53;;
23782;SDS011;12071;50.850;4.446;2023-02-10T03:50:19;90.63;;;40.08;;
23782;SDS011;12071;50.850;4.446;2023-02-10T03:52:44;96.38;;;41.25;;
23782;SDS011;12071;50.850;4.446;2023-02-10T03:55:10;93.95;;;41.88;;
23782;SDS011;12071;50.850;4.446;2023-02-10T03:57:56;92.18;;;41.00;;
23782;SDS011;12071;50.850;4.446;2023-02-10T04:00:22;89.85;;;40.55;;
23782;SDS011;12071;50.850;4.446;2023-02-10T04:02:47;87.97;;;39.17;;
23782;SDS011;12071;50.850;4.446;2023-02-10T04:05:14;90.30;;;38.75;;
23782;SDS011;12071;50.850;4.446;2023-02-10T04:07:39;88.75;;;39.50;;
23782;SDS011;12071;50.850;4.446;2023-02-10T04:10:06;88.20;;;39.33;;
23782;SDS011;12071;50.850;4.446;2023-02-10T04:12:32;92.63;;;40.75;;
23782;SDS011;12071;50.850;4.446;2023-02-10T04:14:57;93.93;;;41.60;;
23782;SDS011;12071;50.850;4.446;2023-02-10T04:17:23;95.75;;;38.88;;
23782;SDS011;12071;50.850;4.446;2023-02-10T04:19:49;95.68;;;39.55;;
23782;SDS011;12071;50.850;4.446;2023-02-10T04:22:14;103.68;;;43.78;;
23782;SDS011;12071;50.850;4.446;2023-02-10T04:24:40;93.90;;;40.53;;
23782;SDS011;12071;50.850;4.446;2023-02-10T04:27:05;96.15;;;41.28;;
23782;SDS011;12071;50.850;4.446;2023-02-10T04:29:31;93.05;;;41.17;;
23782;SDS011;12071;50.850;4.446;2023-02-10T04:31:58;95.78;;;43.28;;
23782;SDS011;12071;50.850;4.446;2023-02-10T04:34:24;93.32;;;40.05;;
23782;SDS011;12071;50.850;4.446;2023-02-10T04:36:49;91.50;;;40.72;;
23782;SDS011;12071;50.850;4.446;2023-02-10T04:39:15;101.68;;;40.50;;
23782;SDS011;12071;50.850;4.446;2023-02-10T04:41:40;99.43;;;40.75;;
23782;SDS011;12071;50.850;4.446;2023-02-10T04:44:06;101.43;;;43.22;;
23782;SDS011;12071;50.850;4.446;2023-02-10T04:46:32;97.05;;;43.25;;
23782;SDS011;12071;50.850;4.446;2023-02-10T04:48:57;103.85;;;43.72;;
23782;SDS011;12071;50.850;4.446;2023-02-10T04:51:23;102.90;;;43.15;;
23782;SDS011;12071;50.850;4.446;2023-02-10T04:53:48;100.68;;;43.15;;
23782;SDS011;12071;50.850;4.446;2023-02-10T04:56:14;96.72;;;43.08;;
23782;SDS011;12071;50.850;4.446;2023-02-10T04:58:40;97.40;;;42.63;;
23782;SDS011;12071;50.850;4.446;2023-02-10T05:01:06;100.35;;;43.22;;
23782;SDS011;12071;50.850;4.446;2023-02-10T05:03:32;97.07;;;43.10;;
23782;SDS011;12071;50.850;4.446;2023-02-10T05:05:57;104.57;;;45.22;;
23782;SDS011;12071;50.850;4.446;2023-02-10T05:08:23;102.70;;;44.22;;
23782;SDS011;12071;50.850;4.446;2023-02-10T05:10:50;103.95;;;45.72;;
23782;SDS011;12071;50.850;4.446;2023-02-10T05:13:16;89.00;;;42.65;;
23782;SDS011;12071;50.850;4.446;2023-02-10T05:15:42;96.63;;;43.42;;
23782;SDS011;12071;50.850;4.446;2023-02-10T05:18:08;93.70;;;42.40;;
23782;SDS011;12071;50.850;4.446;2023-02-10T05:20:34;96.30;;;42.38;;
23782;SDS011;12071;50.850;4.446;2023-02-10T05:23:00;101.78;;;43.92;;
23782;SDS011;12071;50.850;4.446;2023-02-10T05:25:25;95.28;;;41.30;;
23782;SDS011;12071;50.850;4.446;2023-02-10T05:27:51;96.63;;;43.95;;
23782;SDS011;12071;50.850;4.446;2023-02-10T05:30:16;100.03;;;42.88;;
23782;SDS011;12071;50.850;4.446;2023-02-10T05:32:42;90.40;;;42.90;;
23782;SDS011;12071;50.850;4.446;2023-02-10T05:35:08;98.47;;;44.17;;
23782;SDS011;12071;50.850;4.446;2023-02-10T05:37:34;109.07;;;47.22;;
23782;SDS011;12071;50.850;4.446;2023-02-10T05:40:00;128.43;;;49.15;;
23782;SDS011;12071;50.850;4.446;2023-02-10T05:42:26;117.65;;;47.58;;
23782;SDS011;12071;50.850;4.446;2023-02-10T05:44:52;122.35;;;48.92;;
23782;SDS011;12071;50.850;4.446;2023-02-10T05:47:17;116.07;;;48.80;;
23782;SDS011;12071;50.850;4.446;2023-02-10T05:49:43;119.22;;;49.17;;
23782;SDS011;12071;50.850;4.446;2023-02-10T05:52:08;116.00;;;46.90;;
23782;SDS011;12071;50.850;4.446;2023-02-10T05:54:34;110.55;;;46.45;;
23782;SDS011;12071;50.850;4.446;2023-02-10T05:57:00;113.85;;;46.38;;
23782;SDS011;12071;50.850;4.446;2023-02-10T05:59:26;113.25;;;46.30;;
23782;SDS011;12071;50.850;4.446;2023-02-10T06:01:51;107.43;;;44.97;;
23782;SDS011;12071;50.850;4.446;2023-02-10T06:04:17;111.00;;;44.65;;
23782;SDS011;12071;50.850;4.446;2023-02-10T06:06:43;114.53;;;45.60;;
23782;SDS011;12071;50.850;4.446;2023-02-10T06:09:08;108.43;;;45.95;;
23782;SDS011;12071;50.850;4.446;2023-02-10T06:11:34;113.35;;;46.33;;
23782;SDS011;12071;50.850;4.446;2023-02-10T06:14:00;101.97;;;45.05;;
23782;SDS011;12071;50.850;4.446;2023-02-10T06:16:26;106.68;;;44.55;;
23782;SDS011;12071;50.850;4.446;2023-02-10T06:18:51;106.03;;;45.42;;
23782;SDS011;12071;50.850;4.446;2023-02-10T06:21:17;115.10;;;46.72;;
23782;SDS011;12071;50.850;4.446;2023-02-10T06:23:44;106.32;;;46.53;;
23782;SDS011;12071;50.850;4.446;2023-02-10T06:26:09;115.38;;;48.65;;
23782;SDS011;12071;50.850;4.446;2023-02-10T06:28:35;108.82;;;46.25;;
23782;SDS011;12071;50.850;4.446;2023-02-10T06:31:01;109.95;;;47.33;;
23782;SDS011;12071;50.850;4.446;2023-02-10T06:33:28;113.75;;;47.58;;
23782;SDS011;12071;50.850;4.446;2023-02-10T06:35:53;108.85;;;45.60;;
23782;SDS011;12071;50.850;4.446;2023-02-10T06:38:19;109.43;;;48.50;;
23782;SDS011;12071;50.850;4.446;2023-02-10T06:40:45;106.57;;;47.78;;
23782;SDS011;12071;50.850;4.446;2023-02-10T06:43:10;112.53;;;44.83;;
23782;SDS011;12071;50.850;4.446;2023-02-10T06:45:36;120.28;;;48.08;;
23782;SDS011;12071;50.850;4.446;2023-02-10T06:48:03;111.10;;;48.78;;
23782;SDS011;12071;50.850;4.446;2023-02-10T06:50:29;115.95;;;48.75;;
23782;SDS011;12071;50.850;4.446;2023-02-10T06:52:54;114.70;;;49.30;;
23782;SDS011;12071;50.850;4.446;2023-02-10T06:55:20;108.90;;;49.15;;
23782;SDS011;12071;50.850;4.446;2023-02-10T06:57:46;107.55;;;48.88;;
23782;SDS011;12071;50.850;4.446;2023-02-10T07:00:13;119.25;;;53.08;;
23782;SDS011;12071;50.850;4.446;2023-02-10T07:02:39;118.70;;;52.13;;
23782;SDS011;12071;50.850;4.446;2023-02-10T07:05:06;112.93;;;51.10;;
23782;SDS011;12071;50.850;4.446;2023-02-10T07:07:36;125.22;;;53.25;;
23782;SDS011;12071;50.850;4.446;2023-02-10T07:10:02;111.05;;;50.08;;
23782;SDS011;12071;50.850;4.446;2023-02-10T07:12:28;117.93;;;51.75;;
23782;SDS011;12071;50.850;4.446;2023-02-10T07:14:53;117.55;;;51.35;;
23782;SDS011;12071;50.850;4.446;2023-02-10T07:17:19;109.18;;;50.65;;
23782;SDS011;12071;50.850;4.446;2023-02-10T07:19:45;120.93;;;52.53;;
23782;SDS011;12071;50.850;4.446;2023-02-10T07:22:12;118.00;;;51.60;;
23782;SDS011;12071;50.850;4.446;2023-02-10T07:24:38;134.52;;;55.28;;
23782;SDS011;12071;50.850;4.446;2023-02-10T07:27:04;128.30;;;53.97;;
23782;SDS011;12071;50.850;4.446;2023-02-10T07:29:29;130.23;;;56.08;;
23782;SDS011;12071;50.850;4.446;2023-02-10T07:31:55;128.98;;;54.83;;
23782;SDS011;12071;50.850;4.446;2023-02-10T07:34:24;122.78;;;54.33;;
23782;SDS011;12071;50.850;4.446;2023-02-10T07:36:51;130.95;;;54.70;;
23782;SDS011;12071;50.850;4.446;2023-02-10T07:39:22;125.68;;;55.25;;
23782;SDS011;12071;50.850;4.446;2023-02-10T07:41:48;124.95;;;54.42;;
23782;SDS011;12071;50.850;4.446;2023-02-10T07:44:14;132.02;;;56.83;;
23782;SDS011;12071;50.850;4.446;2023-02-10T07:46:40;123.35;;;55.63;;
23782;SDS011;12071;50.850;4.446;2023-02-10T07:49:06;123.38;;;58.85;;
23782;SDS011;12071;50.850;4.446;2023-02-10T07:51:32;127.85;;;57.25;;
23782;SDS011;12071;50.850;4.446;2023-02-10T07:53:57;132.10;;;57.15;;
23782;SDS011;12071;50.850;4.446;2023-02-10T07:56:23;128.90;;;58.42;;
23782;SDS011;12071;50.850;4.446;2023-02-10T07:58:49;136.63;;;60.20;;
23782;SDS011;12071;50.850;4.446;2023-02-10T08:01:14;139.43;;;61.17;;
23782;SDS011;12071;50.850;4.446;2023-02-10T08:03:40;135.23;;;59.97;;
23782;SDS011;12071;50.850;4.446;2023-02-10T08:06:05;131.55;;;60.95;;
23782;SDS011;12071;50.850;4.446;2023-02-10T08:08:31;130.68;;;59.63;;
23782;SDS011;12071;50.850;4.446;2023-02-10T08:10:57;125.00;;;58.05;;
23782;SDS011;12071;50.850;4.446;2023-02-10T08:13:23;127.80;;;58.03;;
23782;SDS011;12071;50.850;4.446;2023-02-10T08:15:49;120.68;;;59.67;;
23782;SDS011;12071;50.850;4.446;2023-02-10T08:18:15;126.38;;;58.05;;
23782;SDS011;12071;50.850;4.446;2023-02-10T08:20:41;132.25;;;59.53;;
23782;SDS011;12071;50.850;4.446;2023-02-10T08:23:07;137.85;;;61.60;;
23782;SDS011;12071;50.850;4.446;2023-02-10T08:25:38;128.32;;;61.20;;
23782;SDS011;12071;50.850;4.446;2023-02-10T08:28:04;129.27;;;60.38;;
23782;SDS011;12071;50.850;4.446;2023-02-10T08:30:30;145.18;;;64.13;;
23782;SDS011;12071;50.850;4.446;2023-02-10T08:32:55;139.23;;;63.42;;
23782;SDS011;12071;50.850;4.446;2023-02-10T08:35:22;138.77;;;65.35;;
23782;SDS011;12071;50.850;4.446;2023-02-10T08:37:48;136.65;;;63.78;;
23782;SDS011;12071;50.850;4.446;2023-02-10T08:40:13;136.32;;;62.65;;
23782;SDS011;12071;50.850;4.446;2023-02-10T08:42:39;142.70;;;62.90;;
23782;SDS011;12071;50.850;4.446;2023-02-10T08:45:04;140.50;;;64.07;;
23782;SDS011;12071;50.850;4.446;2023-02-10T08:47:30;140.77;;;63.35;;
23782;SDS011;12071;50.850;4.446;2023-02-10T08:49:57;137.13;;;60.63;;
23782;SDS011;12071;50.850;4.446;2023-02-10T08:52:23;144.82;;;62.50;;
23782;SDS011;12071;50.850;4.446;2023-02-10T08:54:48;129.80;;;59.40;;
23782;SDS011;12071;50.850;4.446;2023-02-10T08:57:14;133.70;;;60.60;;
23782;SDS011;12071;50.850;4.446;2023-02-10T08:59:39;137.85;;;62.15;;
23782;SDS011;12071;50.850;4.446;2023-02-10T09:02:05;142.50;;;62.22;;
23782;SDS011;12071;50.850;4.446;2023-02-10T09:04:31;137.00;;;61.03;;
23782;SDS011;12071;50.850;4.446;2023-02-10T09:06:57;139.77;;;62.35;;
23782;SDS011;12071;50.850;4.446;2023-02-10T09:09:23;151.30;;;62.67;;
23782;SDS011;12071;50.850;4.446;2023-02-10T09:11:51;152.23;;;65.57;;
23782;SDS011;12071;50.850;4.446;2023-02-10T09:14:18;147.23;;;63.55;;
23782;SDS011;12071;50.850;4.446;2023-02-10T09:16:44;149.65;;;64.22;;
23782;SDS011;12071;50.850;4.446;2023-02-10T09:19:11;141.98;;;63.35;;
23782;SDS011;12071;50.850;4.446;2023-02-10T09:21:37;147.43;;;65.60;;
23782;SDS011;12071;50.850;4.446;2023-02-10T09:24:02;154.32;;;65.18;;
23782;SDS011;12071;50.850;4.446;2023-02-10T09:26:28;149.48;;;63.22;;
23782;SDS011;12071;50.850;4.446;2023-02-10T09:28:54;147.73;;;62.30;;
23782;SDS011;12071;50.850;4.446;2023-02-10T09:31:20;151.23;;;62.67;;
23782;SDS011;12071;50.850;4.446;2023-02-10T09:33:47;156.52;;;59.92;;
23782;SDS011;12071;50.850;4.446;2023-02-10T09:36:14;156.85;;;65.13;;
23782;SDS011;12071;50.850;4.446;2023-02-10T09:38:41;140.07;;;58.33;;
23782;SDS011;12071;50.850;4.446;2023-02-10T09:49:25;149.90;;;62.67;;
23782;SDS011;12071;50.850;4.446;2023-02-10T09:55:28;134.95;;;58.30;;
23782;SDS011;12071;50.850;4.446;2023-02-10T09:57:57;136.20;;;58.40;;
23782;SDS011;12071;50.850;4.446;2023-02-10T10:00:44;143.60;;;59.53;;
23782;SDS011;12071;50.850;4.446;2023-02-10T10:03:13;131.43;;;55.03;;
23782;SDS011;12071;50.850;4.446;2023-02-10T10:11:18;136.48;;;56.92;;
23782;SDS011;12071;50.850;4.446;2023-02-10T10:13:55;141.93;;;56.63;;
23782;SDS011;12071;50.850;4.446;2023-02-10T10:21:52;126.72;;;55.70;;
23782;SDS011;12071;50.850;4.446;2023-02-10T10:27:24;130.23;;;54.58;;
23782;SDS011;12071;50.850;4.446;2023-02-10T10:29:59;124.90;;;55.13;;
23782;SDS011;12071;50.850;4.446;2023-02-10T10:32:52;117.28;;;50.75;;
23782;SDS011;12071;50.850;4.446;2023-02-10T10:35:31;124.15;;;54.38;;
23782;SDS011;12071;50.850;4.446;2023-02-10T10:38:14;104.78;;;48.67;;
23782;SDS011;12071;50.850;4.446;2023-02-10T10:40:45;104.13;;;48.15;;
23782;SDS011;12071;50.850;4.446;2023-02-10T10:43:14;104.38;;;48.33;;
23782;SDS011;12071;50.850;4.446;2023-02-10T10:45:47;95.90;;;44.05;;
23782;SDS011;12071;50.850;4.446;2023-02-10T10:48:26;100.90;;;47.03;;
23782;SDS011;12071;50.850;4.446;2023-02-10T10:50:59;94.32;;;45.80;;
23782;SDS011;12071;50.850;4.446;2023-02-10T10:56:01;96.53;;;44.83;;
23782;SDS011;12071;50.850;4.446;2023-02-10T10:58:31;96.18;;;43.97;;
23782;SDS011;12071;50.850;4.446;2023-02-10T11:03:28;92.25;;;42.85;;
23782;SDS011;12071;50.850;4.446;2023-02-10T11:08:27;98.20;;;42.92;;
23782;SDS011;12071;50.850;4.446;2023-02-10T11:10:56;105.22;;;43.72;;
23782;SDS011;12071;50.850;4.446;2023-02-10T11:13:26;97.95;;;43.88;;
23782;SDS011;12071;50.850;4.446;2023-02-10T11:16:10;84.32;;;39.33;;
23782;SDS011;12071;50.850;4.446;2023-02-10T11:18:49;84.38;;;38.33;;
23782;SDS011;12071;50.850;4.446;2023-02-10T11:21:17;76.63;;;36.13;;
23782;SDS011;12071;50.850;4.446;2023-02-10T11:23:49;81.70;;;38.75;;
23782;SDS011;12071;50.850;4.446;2023-02-10T11:26:23;86.97;;;40.58;;
23782;SDS011;12071;50.850;4.446;2023-02-10T11:28:52;80.47;;;37.38;;
23782;SDS011;12071;50.850;4.446;2023-02-10T11:31:22;81.78;;;38.17;;
23782;SDS011;12071;50.850;4.446;2023-02-10T11:36:35;79.28;;;37.47;;
23782;SDS011;12071;50.850;4.446;2023-02-10T11:39:04;77.75;;;34.53;;
23782;SDS011;12071;50.850;4.446;2023-02-10T11:41:32;74.60;;;36.58;;
23782;SDS011;12071;50.850;4.446;2023-02-10T11:43:59;76.53;;;37.15;;
23782;SDS011;12071;50.850;4.446;2023-02-10T11:46:26;82.57;;;37.00;;
23782;SDS011;12071;50.850;4.446;2023-02-10T11:49:02;76.45;;;37.33;;
23782;SDS011;12071;50.850;4.446;2023-02-10T11:51:30;80.65;;;36.70;;
23782;SDS011;12071;50.850;4.446;2023-02-10T11:53:56;77.55;;;36.58;;
23782;SDS011;12071;50.850;4.446;2023-02-10T11:59:17;83.13;;;35.58;;
23782;SDS011;12071;50.850;4.446;2023-02-10T12:01:51;78.13;;;35.17;;
23782;SDS011;12071;50.850;4.446;2023-02-10T12:09:58;73.40;;;37.70;;
23782;SDS011;12071;50.850;4.446;2023-02-10T12:12:33;72.50;;;32.33;;
23782;SDS011;12071;50.850;4.446;2023-02-10T12:26:45;77.90;;;33.25;;
23782;SDS011;12071;50.850;4.446;2023-02-10T12:34:57;69.13;;;32.70;;
23782;SDS011;12071;50.850;4.446;2023-02-10T12:48:45;63.88;;;33.60;;
23782;SDS011;12071;50.850;4.446;2023-02-10T12:57:05;62.22;;;32.75;;
23782;SDS011;12071;50.850;4.446;2023-02-10T12:59:49;58.88;;;30.17;;
23782;SDS011;12071;50.850;4.446;2023-02-10T13:04:56;55.35;;;30.55;;
23782;SDS011;12071;50.850;4.446;2023-02-10T13:12:48;65.53;;;32.80;;
23782;SDS011;12071;50.850;4.446;2023-02-10T13:15:25;60.05;;;30.17;;
23782;SDS011;12071;50.850;4.446;2023-02-10T13:17:54;54.88;;;28.05;;
23782;SDS011;12071;50.850;4.446;2023-02-10T13:22:51;58.15;;;27.77;;
23782;SDS011;12071;50.850;4.446;2023-02-10T13:25:56;56.25;;;26.20;;
23782;SDS011;12071;50.850;4.446;2023-02-10T13:33:53;62.30;;;31.50;;
23782;SDS011;12071;50.850;4.446;2023-02-10T13:36:29;67.97;;;30.83;;
23782;SDS011;12071;50.850;4.446;2023-02-10T13:39:00;73.53;;;33.20;;
23782;SDS011;12071;50.850;4.446;2023-02-10T13:41:30;64.80;;;29.05;;
23782;SDS011;12071;50.850;4.446;2023-02-10T13:44:14;64.10;;;29.23;;
23782;SDS011;12071;50.850;4.446;2023-02-10T13:46:54;64.55;;;29.85;;
23782;SDS011;12071;50.850;4.446;2023-02-10T13:49:36;71.78;;;30.60;;
23782;SDS011;12071;50.850;4.446;2023-02-10T13:52:20;73.88;;;32.05;;
23782;SDS011;12071;50.850;4.446;2023-02-10T13:57:35;68.47;;;30.52;;
23782;SDS011;12071;50.850;4.446;2023-02-10T14:00:25;66.97;;;29.50;;
23782;SDS011;12071;50.850;4.446;2023-02-10T14:05:36;67.35;;;30.17;;
23782;SDS011;12071;50.850;4.446;2023-02-10T14:08:25;69.03;;;30.63;;
23782;SDS011;12071;50.850;4.446;2023-02-10T14:13:41;69.68;;;29.65;;
23782;SDS011;12071;50.850;4.446;2023-02-10T14:18:40;66.55;;;28.83;;
23782;SDS011;12071;50.850;4.446;2023-02-10T14:21:09;69.32;;;31.17;;
23782;SDS011;12071;50.850;4.446;2023-02-10T14:23:38;72.88;;;31.20;;
23782;SDS011;12071;50.850;4.446;2023-02-10T14:26:07;65.07;;;31.02;;
23782;SDS011;12071;50.850;4.446;2023-02-10T14:28:46;74.85;;;32.13;;
23782;SDS011;12071;50.850;4.446;2023-02-10T14:31:19;69.20;;;31.52;;
23782;SDS011;12071;50.850;4.446;2023-02-10T14:34:05;64.70;;;32.13;;
23782;SDS011;12071;50.850;4.446;2023-02-10T14:36:53;72.35;;;32.85;;
23782;SDS011;12071;50.850;4.446;2023-02-10T14:39:28;72.55;;;32.53;;
23782;SDS011;12071;50.850;4.446;2023-02-10T14:41:56;69.00;;;33.72;;
23782;SDS011;12071;50.850;4.446;2023-02-10T14:44:34;79.43;;;33.38;;
23782;SDS011;12071;50.850;4.446;2023-02-10T14:47:22;78.13;;;34.28;;
23782;SDS011;12071;50.850;4.446;2023-02-10T14:49:53;73.30;;;33.50;;
23782;SDS011;12071;50.850;4.446;2023-02-10T14:54:54;73.47;;;32.75;;
23782;SDS011;12071;50.850;4.446;2023-02-10T14:57:21;75.40;;;32.80;;
23782;SDS011;12071;50.850;4.446;2023-02-10T14:59:58;71.15;;;32.75;;
23782;SDS011;12071;50.850;4.446;2023-02-10T15:02:25;67.65;;;31.27;;
23782;SDS011;12071;50.850;4.446;2023-02-10T15:04:54;67.95;;;32.40;;
23782;SDS011;12071;50.850;4.446;2023-02-10T15:07:25;65.80;;;32.00;;
23782;SDS011;12071;50.850;4.446;2023-02-10T15:09:56;70.80;;;33.53;;
23782;SDS011;12071;50.850;4.446;2023-02-10T15:12:26;71.72;;;32.92;;
23782;SDS011;12071;50.850;4.446;2023-02-10T15:15:00;66.80;;;32.28;;
23782;SDS011;12071;50.850;4.446;2023-02-10T15:17:38;68.93;;;31.35;;
23782;SDS011;12071;50.850;4.446;2023-02-10T15:33:36;75.30;;;32.78;;
23782;SDS011;12071;50.850;4.446;2023-02-10T15:41:31;70.20;;;33.20;;
23782;SDS011;12071;50.850;4.446;2023-02-10T15:44:40;70.20;;;33.55;;
23782;SDS011;12071;50.850;4.446;2023-02-10T15:49:54;71.93;;;31.63;;
23782;SDS011;12071;50.850;4.446;2023-02-10T15:52:23;69.03;;;32.72;;
23782;SDS011;12071;50.850;4.446;2023-02-10T15:54:49;70.43;;;33.47;;
23782;SDS011;12071;50.850;4.446;2023-02-10T15:57:16;70.00;;;32.53;;
23782;SDS011;12071;50.850;4.446;2023-02-10T15:59:42;75.38;;;34.10;;
23782;SDS011;12071;50.850;4.446;2023-02-10T16:02:10;69.13;;;33.63;;
23782;SDS011;12071;50.850;4.446;2023-02-10T16:04:38;74.25;;;33.97;;
23782;SDS011;12071;50.850;4.446;2023-02-10T16:07:04;69.75;;;33.28;;
23782;SDS011;12071;50.850;4.446;2023-02-10T16:09:30;71.88;;;33.25;;
23782;SDS011;12071;50.850;4.446;2023-02-10T16:11:57;74.93;;;33.65;;
23782;SDS011;12071;50.850;4.446;2023-02-10T16:14:24;79.38;;;35.25;;
23782;SDS011;12071;50.850;4.446;2023-02-10T16:16:53;79.82;;;34.25;;
23782;SDS011;12071;50.850;4.446;2023-02-10T16:19:22;80.93;;;33.80;;
23782;SDS011;12071;50.850;4.446;2023-02-10T16:21:50;84.28;;;36.97;;
23782;SDS011;12071;50.850;4.446;2023-02-10T16:24:20;78.13;;;37.10;;
23782;SDS011;12071;50.850;4.446;2023-02-10T16:26:47;82.15;;;35.85;;
23782;SDS011;12071;50.850;4.446;2023-02-10T16:29:17;95.07;;;38.63;;
23782;SDS011;12071;50.850;4.446;2023-02-10T16:31:47;85.22;;;37.17;;
23782;SDS011;12071;50.850;4.446;2023-02-10T16:34:13;83.03;;;37.58;;
23782;SDS011;12071;50.850;4.446;2023-02-10T16:36:39;91.60;;;38.45;;
23782;SDS011;12071;50.850;4.446;2023-02-10T16:39:08;84.88;;;39.15;;
23782;SDS011;12071;50.850;4.446;2023-02-10T16:41:37;90.82;;;38.42;;
23782;SDS011;12071;50.850;4.446;2023-02-10T16:44:03;86.18;;;40.35;;
23782;SDS011;12071;50.850;4.446;2023-02-10T16:46:28;96.38;;;40.92;;
23782;SDS011;12071;50.850;4.446;2023-02-10T16:48:54;94.32;;;42.08;;
23782;SDS011;12071;50.850;4.446;2023-02-10T16:51:20;90.50;;;40.10;;
23782;SDS011;12071;50.850;4.446;2023-02-10T16:53:45;95.15;;;42.22;;
23782;SDS011;12071;50.850;4.446;2023-02-10T16:56:13;89.47;;;40.67;;